Time;durP1;ratioP1;P1;durP2;ratioP2;P2;SDS_P1;SDS_P2;PMS_P1;PMS_P2;Temp;Humidity;BMP_temperature;BMP_pressure;BME280_temperature;BME280_humidity;BME280_pressure;Samples;Min_cycle;Max_cycle;Signal;HPM_P1;HPM_P2
2021/11/14 00:00:30;;;;;;;2.60;1.85;;;8.00;99.90;;;;;;5088304;28;20110;-79
2021/11/14 00:02:58;;;;;;;2.65;2.13;;;8.00;99.90;;;;;;5068533;28;20028;-79
2021/11/14 00:05:24;;;;;;;2.13;1.92;;;8.00;99.90;;;;;;5086800;28;20017;-80
2021/11/14 00:07:50;;;;;;;2.22;1.92;;;8.00;99.90;;;;;;5086602;28;20036;-81
2021/11/14 00:10:16;;;;;;;3.65;2.65;;;7.90;99.90;;;;;;5086760;28;20469;-80
2021/11/14 00:12:42;;;;;;;2.00;1.70;;;8.00;99.90;;;;;;5068616;28;20082;-81
2021/11/14 00:15:10;;;;;;;2.63;1.83;;;8.00;99.90;;;;;;5086494;28;20028;-79
2021/11/14 00:17:35;;;;;;;2.17;1.98;;;8.00;99.90;;;;;;5074098;28;20108;-79
2021/11/14 00:20:05;;;;;;;2.65;2.03;;;8.00;99.90;;;;;;5092209;28;20036;-80
2021/11/14 00:22:31;;;;;;;3.30;2.65;;;8.00;99.90;;;;;;5071195;28;20017;-81
2021/11/14 00:24:57;;;;;;;3.60;2.85;;;8.00;99.90;;;;;;5069632;28;20055;-81
2021/11/14 00:27:23;;;;;;;2.45;2.05;;;8.00;99.90;;;;;;5072176;28;20024;-80
2021/11/14 00:29:49;;;;;;;2.20;2.00;;;8.00;99.90;;;;;;5090295;28;20032;-79
2021/11/14 00:32:15;;;;;;;2.03;1.77;;;8.00;99.90;;;;;;5071330;28;20020;-80
2021/11/14 00:34:41;;;;;;;2.45;2.25;;;8.00;99.90;;;;;;5068954;28;20054;-81
2021/11/14 00:37:07;;;;;;;2.42;2.10;;;8.00;99.90;;;;;;5087638;28;20024;-80
2021/11/14 00:39:33;;;;;;;2.53;1.95;;;8.00;99.90;;;;;;5068790;28;20035;-81
2021/11/14 00:41:59;;;;;;;2.08;1.60;;;8.00;99.90;;;;;;5086129;28;20028;-81
2021/11/14 00:44:25;;;;;;;2.70;1.95;;;8.00;99.90;;;;;;5068160;28;20158;-82
2021/11/14 00:46:52;;;;;;;1.90;1.70;;;8.00;99.90;;;;;;5072121;28;20024;-80
2021/11/14 00:49:17;;;;;;;2.67;1.80;;;8.00;99.90;;;;;;5088592;28;20330;-80
2021/11/14 00:51:43;;;;;;;2.30;2.10;;;8.00;99.90;;;;;;5086360;28;20032;-81
2021/11/14 00:54:09;;;;;;;2.33;1.75;;;8.00;99.90;;;;;;5086366;28;20081;-82
2021/11/14 00:56:36;;;;;;;2.40;1.98;;;8.00;99.90;;;;;;5085109;28;20123;-80
2021/11/14 00:59:02;;;;;;;2.50;2.30;;;8.00;99.90;;;;;;5085303;28;20025;-78
2021/11/14 01:01:28;;;;;;;2.50;2.20;;;8.10;99.90;;;;;;5086166;28;20024;-81
2021/11/14 01:03:57;;;;;;;3.10;2.22;;;8.10;99.90;;;;;;5067678;28;20040;-80
2021/11/14 01:06:22;;;;;;;2.58;1.80;;;8.10;99.90;;;;;;5085746;28;20052;-79
2021/11/14 01:08:49;;;;;;;2.58;2.10;;;8.10;99.90;;;;;;5085397;28;20024;-78
2021/11/14 01:11:15;;;;;;;2.85;2.40;;;8.10;99.90;;;;;;5067559;28;20021;-79
2021/11/14 01:13:42;;;;;;;3.45;2.38;;;8.10;99.90;;;;;;5084568;28;20079;-80
2021/11/14 01:16:11;;;;;;;2.83;2.28;;;8.10;99.90;;;;;;5085715;28;20020;-80
2021/11/14 01:18:37;;;;;;;2.70;2.05;;;8.20;99.90;;;;;;5086283;28;20021;-79
2021/11/14 01:21:12;;;;;;;2.75;1.90;;;8.20;99.90;;;;;;5086777;28;20035;-80
2021/11/14 01:23:38;;;;;;;3.72;2.72;;;8.20;99.90;;;;;;5087789;28;20029;-81
2021/11/14 01:26:04;;;;;;;2.40;2.20;;;8.10;99.90;;;;;;5085535;28;20024;-82
2021/11/14 01:28:30;;;;;;;2.00;1.73;;;8.10;99.90;;;;;;5085824;28;20027;-80
2021/11/14 01:30:56;;;;;;;2.20;1.90;;;8.10;99.90;;;;;;5086156;28;20025;-79
2021/11/14 01:33:24;;;;;;;2.65;2.13;;;8.10;99.90;;;;;;5068039;28;20062;-80
2021/11/14 01:35:53;;;;;;;2.00;1.77;;;8.10;99.90;;;;;;5086659;28;20021;-81
2021/11/14 01:38:20;;;;;;;2.20;1.77;;;8.10;99.90;;;;;;5084680;28;20023;-80
2021/11/14 01:40:54;;;;;;;1.95;1.80;;;8.10;99.90;;;;;;5091298;28;20025;-77
2021/11/14 01:43:24;;;;;;;1.95;1.75;;;8.10;99.90;;;;;;5094059;28;20033;-79
2021/11/14 01:45:50;;;;;;;1.70;1.60;;;8.10;99.90;;;;;;5087873;28;20046;-79
2021/11/14 01:48:16;;;;;;;2.03;1.83;;;8.10;99.90;;;;;;5072026;28;20028;-80
2021/11/14 01:50:43;;;;;;;2.50;1.83;;;8.10;99.90;;;;;;5091754;28;20023;-80
2021/11/14 01:53:09;;;;;;;2.58;2.05;;;8.10;99.90;;;;;;5073126;28;20028;-80
2021/11/14 01:55:41;;;;;;;1.90;1.80;;;8.10;99.90;;;;;;5091121;28;20092;-81
2021/11/14 01:58:07;;;;;;;2.17;1.95;;;8.10;99.90;;;;;;5089202;28;20480;-79
2021/11/14 02:00:38;;;;;;;2.33;2.05;;;8.20;99.90;;;;;;5090500;28;20047;-80
2021/11/14 02:03:04;;;;;;;3.72;2.08;;;8.10;99.90;;;;;;5090082;28;20027;-80
2021/11/14 02:05:32;;;;;;;2.70;2.10;;;8.10;99.90;;;;;;5090148;28;20016;-79
2021/11/14 02:08:00;;;;;;;2.55;2.08;;;8.10;99.90;;;;;;5089821;28;20020;-81
2021/11/14 02:10:28;;;;;;;2.42;2.22;;;8.20;99.90;;;;;;5089892;28;20028;-81
2021/11/14 02:12:55;;;;;;;2.47;2.20;;;8.20;99.90;;;;;;5090176;28;20069;-80
2021/11/14 02:15:21;;;;;;;2.47;1.95;;;8.20;99.90;;;;;;5090361;28;20086;-81
2021/11/14 02:17:47;;;;;;;2.95;2.10;;;8.20;99.90;;;;;;5071759;28;20392;-81
2021/11/14 02:20:13;;;;;;;2.58;1.85;;;8.20;99.90;;;;;;5090995;28;20025;-80
2021/11/14 02:22:39;;;;;;;2.15;1.95;;;8.20;99.90;;;;;;5071769;28;20020;-80
2021/11/14 02:25:11;;;;;;;4.03;2.20;;;8.30;99.90;;;;;;5072207;28;20032;-81
2021/11/14 02:27:38;;;;;;;2.30;2.03;;;8.20;99.90;;;;;;5088776;28;20400;-79
2021/11/14 02:30:07;;;;;;;1.55;1.42;;;8.20;99.90;;;;;;5089256;28;20420;-81
2021/11/14 02:32:33;;;;;;;3.60;1.70;;;8.20;99.90;;;;;;5072502;28;20044;-81
2021/11/14 02:34:59;;;;;;;2.55;1.90;;;8.20;99.90;;;;;;5089406;28;20029;-81
2021/11/14 02:37:25;;;;;;;1.83;1.73;;;8.30;99.90;;;;;;5090537;28;20025;-81
2021/11/14 02:39:51;;;;;;;2.72;1.75;;;8.20;99.90;;;;;;5090434;28;20025;-79
2021/11/14 02:42:17;;;;;;;1.92;1.65;;;8.20;99.90;;;;;;5073186;28;20037;-81
2021/11/14 02:44:43;;;;;;;1.85;1.52;;;8.20;99.90;;;;;;5090229;28;20511;-80
2021/11/14 02:47:09;;;;;;;1.73;1.60;;;8.20;99.90;;;;;;5090038;28;20047;-79
2021/11/14 02:49:35;;;;;;;2.58;1.90;;;8.20;99.90;;;;;;5089480;28;20024;-78
2021/11/14 02:52:01;;;;;;;2.70;2.30;;;8.10;99.90;;;;;;5090285;28;20039;-78
2021/11/14 02:54:28;;;;;;;3.80;2.35;;;8.20;99.90;;;;;;5089848;28;20021;-81
2021/11/14 02:56:54;;;;;;;3.08;2.75;;;8.20;99.90;;;;;;5088821;28;20059;-80
2021/11/14 02:59:20;;;;;;;3.08;2.47;;;8.20;99.90;;;;;;5090872;28;20036;-76
2021/11/14 03:01:49;;;;;;;4.63;2.78;;;8.20;99.90;;;;;;5072065;28;20042;-81
2021/11/14 03:04:19;;;;;;;3.97;2.78;;;8.20;99.90;;;;;;5090713;28;20028;-81
2021/11/14 03:06:48;;;;;;;3.60;2.75;;;8.20;99.90;;;;;;5091107;28;20025;-79
2021/11/14 03:09:14;;;;;;;3.67;2.90;;;8.20;99.90;;;;;;5091942;28;20028;-81
2021/11/14 03:11:40;;;;;;;3.78;3.00;;;8.20;99.90;;;;;;5089386;28;20056;-80
2021/11/14 03:14:06;;;;;;;3.95;3.35;;;8.10;99.90;;;;;;5094805;28;20035;-78
2021/11/14 03:16:33;;;;;;;4.10;3.58;;;8.10;99.90;;;;;;5093234;28;20051;-81
2021/11/14 03:19:00;;;;;;;6.40;3.95;;;8.10;99.90;;;;;;5090207;28;20021;-79
2021/11/14 03:21:27;;;;;;;6.40;3.97;;;8.20;99.90;;;;;;5088992;28;20020;-80
2021/11/14 03:23:54;;;;;;;3.97;3.50;;;8.20;99.90;;;;;;5092006;28;20038;-80
2021/11/14 03:26:20;;;;;;;4.60;3.60;;;8.20;99.90;;;;;;5089053;28;20039;-78
2021/11/14 03:28:46;;;;;;;4.95;3.65;;;8.20;99.90;;;;;;5090007;28;20028;-80
2021/11/14 03:31:13;;;;;;;4.25;3.50;;;8.20;99.90;;;;;;5088994;28;20021;-81
2021/11/14 03:33:39;;;;;;;5.78;3.60;;;8.20;99.90;;;;;;5070999;28;20032;-81
2021/11/14 03:36:11;;;;;;;5.07;3.78;;;8.20;99.90;;;;;;5089055;28;20024;-81
2021/11/14 03:38:42;;;;;;;5.13;3.72;;;8.20;99.90;;;;;;5089208;28;20478;-80
2021/11/14 03:41:14;;;;;;;4.70;3.58;;;8.20;99.90;;;;;;5071080;28;20044;-81
2021/11/14 03:43:40;;;;;;;5.05;4.00;;;8.20;99.90;;;;;;5087599;28;20028;-81
2021/11/14 03:46:07;;;;;;;3.75;3.17;;;8.20;99.90;;;;;;5089509;28;20024;-80
2021/11/14 03:48:35;;;;;;;5.50;4.38;;;8.20;99.90;;;;;;5089098;28;20100;-81
2021/11/14 03:51:01;;;;;;;7.38;4.82;;;8.10;99.90;;;;;;5089994;28;20016;-81
2021/11/14 03:53:27;;;;;;;6.80;4.93;;;8.10;99.90;;;;;;5070443;28;20024;-81
2021/11/14 03:55:53;;;;;;;6.68;5.03;;;8.10;99.90;;;;;;5071470;28;20476;-80
2021/11/14 03:58:19;;;;;;;5.70;4.13;;;8.10;99.90;;;;;;5089039;28;20021;-81
2021/11/14 04:00:51;;;;;;;8.05;5.60;;;8.00;99.90;;;;;;5089295;28;20052;-79
2021/11/14 04:03:17;;;;;;;6.93;5.20;;;8.00;99.90;;;;;;5089609;28;20020;-80
2021/11/14 04:05:44;;;;;;;5.75;4.53;;;8.00;99.90;;;;;;5091185;28;20032;-79
2021/11/14 04:08:20;;;;;;;7.97;4.82;;;8.00;99.90;;;;;;5089206;28;20128;-79
2021/11/14 04:10:47;;;;;;;6.88;4.88;;;8.00;99.90;;;;;;5088637;28;20051;-79
2021/11/14 04:13:14;;;;;;;6.22;4.53;;;7.90;99.90;;;;;;5089623;28;20009;-79
2021/11/14 04:15:40;;;;;;;6.68;4.80;;;7.90;99.90;;;;;;5093454;28;20013;-81
2021/11/14 04:18:07;;;;;;;7.22;5.07;;;7.90;99.90;;;;;;5094058;28;20302;-81
2021/11/14 04:20:39;;;;;;;7.72;5.45;;;8.00;99.90;;;;;;5075034;28;20044;-80
2021/11/14 04:23:06;;;;;;;6.45;4.80;;;8.00;99.90;;;;;;5077450;28;20038;-78
2021/11/14 04:25:32;;;;;;;6.15;4.55;;;8.00;99.90;;;;;;5078935;28;20092;-80
2021/11/14 04:27:58;;;;;;;5.28;4.18;;;8.00;99.90;;;;;;5096230;28;20036;-78
2021/11/14 04:30:24;;;;;;;6.90;4.60;;;8.00;99.90;;;;;;5095811;28;20009;-79
2021/11/14 04:32:51;;;;;;;9.38;6.03;;;8.00;99.90;;;;;;5091757;28;20037;-82
2021/11/14 04:35:18;;;;;;;9.43;5.75;;;8.00;99.90;;;;;;5075764;28;20012;-79
2021/11/14 04:37:48;;;;;;;9.10;6.38;;;7.90;99.90;;;;;;5093593;28;20008;-79
2021/11/14 04:40:15;;;;;;;8.77;6.03;;;7.90;99.90;;;;;;5074637;28;20109;-78
2021/11/14 04:42:41;;;;;;;9.10;6.35;;;7.90;99.90;;;;;;5092497;28;20036;-78
2021/11/14 04:45:08;;;;;;;8.45;6.05;;;7.90;99.90;;;;;;5091451;28;20091;-78
2021/11/14 04:47:33;;;;;;;9.68;6.63;;;7.90;99.90;;;;;;5090152;28;20009;-78
2021/11/14 04:50:00;;;;;;;10.73;7.22;;;7.90;99.90;;;;;;5094101;28;20019;-79
2021/11/14 04:52:25;;;;;;;10.05;6.80;;;7.90;99.90;;;;;;5095748;28;20084;-79
2021/11/14 04:54:51;;;;;;;8.73;6.25;;;7.90;99.90;;;;;;5095996;28;20033;-78
2021/11/14 04:57:17;;;;;;;9.20;6.10;;;7.90;99.90;;;;;;5095987;28;20017;-78
2021/11/14 04:59:43;;;;;;;10.40;7.05;;;8.00;99.90;;;;;;5094941;28;20025;-78
2021/11/14 05:02:09;;;;;;;10.43;6.80;;;8.00;99.90;;;;;;5093616;28;20028;-78
2021/11/14 05:04:34;;;;;;;10.43;6.80;;;8.00;99.90;;;;;;5093174;28;20050;-79
2021/11/14 05:07:00;;;;;;;11.20;7.93;;;8.00;99.90;;;;;;5076117;28;20043;-80
2021/11/14 05:09:26;;;;;;;9.30;7.10;;;8.00;99.90;;;;;;5092085;28;20020;-81
2021/11/14 05:11:52;;;;;;;10.00;7.30;;;8.00;99.90;;;;;;5087448;28;20024;-81
2021/11/14 05:14:18;;;;;;;11.27;7.47;;;8.00;99.90;;;;;;5069424;28;20039;-80
2021/11/14 05:16:43;;;;;;;11.73;8.30;;;8.00;99.90;;;;;;5087682;28;20087;-80
2021/11/14 05:19:09;;;;;;;16.02;9.57;;;8.00;99.90;;;;;;5087430;28;20055;-80
2021/11/14 05:21:35;;;;;;;12.68;9.55;;;8.00;99.90;;;;;;5086809;28;20146;-79
2021/11/14 05:24:01;;;;;;;13.77;9.18;;;8.00;99.90;;;;;;5087432;28;20025;-80
2021/11/14 05:26:27;;;;;;;11.13;8.23;;;8.00;99.90;;;;;;5069667;28;20062;-80
2021/11/14 05:28:52;;;;;;;10.93;7.82;;;8.00;99.90;;;;;;5087651;28;20477;-79
2021/11/14 05:31:18;;;;;;;11.38;7.88;;;7.90;99.90;;;;;;5088013;28;20033;-82
2021/11/14 05:33:44;;;;;;;12.63;8.85;;;7.90;99.90;;;;;;5087255;28;20090;-80
2021/11/14 05:36:10;;;;;;;17.65;11.05;;;7.80;99.90;;;;;;5070522;28;20107;-81
2021/11/14 05:38:35;;;;;;;16.85;10.02;;;7.80;99.90;;;;;;5088033;28;20029;-82
2021/11/14 05:41:01;;;;;;;15.10;9.25;;;7.80;99.90;;;;;;5088260;28;20025;-80
2021/11/14 05:43:27;;;;;;;14.00;9.02;;;7.80;99.90;;;;;;5142259;22;20131;-83
2021/11/14 05:45:53;;;;;;;19.75;11.48;;;7.80;99.90;;;;;;5118281;28;20057;-84
2021/11/14 05:48:19;;;;;;;14.63;9.82;;;7.70;99.90;;;;;;5121382;28;20110;-84
2021/11/14 05:50:44;;;;;;;13.95;10.23;;;7.70;99.90;;;;;;5121860;28;20057;-84
2021/11/14 05:53:10;;;;;;;16.15;10.57;;;7.70;99.90;;;;;;5121822;28;20466;-84
2021/11/14 05:55:36;;;;;;;15.85;10.95;;;7.60;99.90;;;;;;5093699;28;20123;-84
2021/11/14 05:58:09;;;;;;;13.82;10.10;;;7.60;99.90;;;;;;5081259;28;20091;-83
2021/11/14 06:00:58;;;;;;;18.42;12.55;;;7.50;99.90;;;;;;5062971;28;20033;-84
2021/11/14 06:05:50;;;;;;;17.35;11.85;;;7.50;99.90;;;;;;5093270;28;20430;-82
2021/11/14 06:08:20;;;;;;;17.67;12.23;;;7.50;99.90;;;;;;5099747;28;20031;-82
2021/11/14 06:10:51;;;;;;;17.95;11.98;;;7.40;99.90;;;;;;5099761;28;20028;-84
2021/11/14 06:13:20;;;;;;;17.98;12.85;;;7.40;99.90;;;;;;5107152;28;20468;-83
2021/11/14 06:15:47;;;;;;;19.45;12.13;;;7.40;99.90;;;;;;5069628;28;20040;-82
2021/11/14 06:18:13;;;;;;;19.08;12.57;;;7.30;99.90;;;;;;5078285;28;20384;-83
2021/11/14 06:20:39;;;;;;;19.48;12.88;;;7.30;99.90;;;;;;5078295;28;20036;-83
2021/11/14 06:23:06;;;;;;;21.90;13.02;;;7.30;99.90;;;;;;5081659;28;20076;-83
2021/11/14 06:25:33;;;;;;;18.40;12.38;;;7.30;99.90;;;;;;5086957;28;20025;-83
2021/11/14 06:27:58;;;;;;;18.35;11.82;;;7.30;99.90;;;;;;5084332;28;20025;-84
2021/11/14 06:30:25;;;;;;;14.63;10.18;;;7.30;99.90;;;;;;5081212;28;20031;-83
2021/11/14 06:32:51;;;;;;;15.85;10.68;;;7.40;99.90;;;;;;5084278;28;20007;-83
2021/11/14 06:35:16;;;;;;;16.42;11.50;;;7.40;99.90;;;;;;5083351;28;20056;-84
2021/11/14 06:37:42;;;;;;;17.48;12.77;;;7.40;99.90;;;;;;5103570;28;20410;-82
2021/11/14 06:40:09;;;;;;;17.02;12.30;;;7.40;99.90;;;;;;5097526;28;20039;-80
2021/11/14 06:42:35;;;;;;;15.02;10.05;;;7.50;99.90;;;;;;5111457;28;20111;-83
2021/11/14 06:45:01;;;;;;;16.42;11.32;;;7.50;99.90;;;;;;5110655;28;20078;-84
2021/11/14 06:47:27;;;;;;;14.10;10.57;;;7.50;99.90;;;;;;5101683;28;20036;-82
2021/11/14 06:49:53;;;;;;;16.27;11.15;;;7.50;99.90;;;;;;5102959;28;20107;-83
2021/11/14 06:52:22;;;;;;;14.40;11.05;;;7.50;99.90;;;;;;5084179;28;20034;-80
2021/11/14 06:54:48;;;;;;;17.65;11.48;;;7.50;99.90;;;;;;5084555;28;20024;-81
2021/11/14 06:57:14;;;;;;;16.23;12.00;;;7.60;99.90;;;;;;5091148;28;20021;-81
2021/11/14 06:59:40;;;;;;;16.98;13.23;;;7.60;99.90;;;;;;5082128;28;20025;-81
2021/11/14 07:02:07;;;;;;;19.33;13.15;;;7.50;99.90;;;;;;5081887;28;20029;-81
2021/11/14 07:04:33;;;;;;;17.15;12.13;;;7.50;99.90;;;;;;5085361;28;20025;-80
2021/11/14 07:06:59;;;;;;;24.27;14.57;;;7.40;99.90;;;;;;5091101;28;20113;-81
2021/11/14 07:09:25;;;;;;;23.98;15.20;;;7.30;99.90;;;;;;5102396;28;20016;-81
2021/11/14 07:11:53;;;;;;;20.52;13.82;;;7.30;99.90;;;;;;5096594;28;20035;-81
2021/11/14 07:14:23;;;;;;;19.33;12.77;;;7.30;99.90;;;;;;5098682;28;20334;-82
2021/11/14 07:16:49;;;;;;;17.70;12.77;;;7.30;99.90;;;;;;5127281;28;20023;-81
2021/11/14 07:19:15;;;;;;;19.73;12.90;;;7.20;99.90;;;;;;5101409;28;20016;-83
2021/11/14 07:21:40;;;;;;;18.33;12.45;;;7.30;99.90;;;;;;5110722;28;20040;-80
2021/11/14 07:24:07;;;;;;;16.90;12.25;;;7.20;99.90;;;;;;5118962;28;20028;-81
2021/11/14 07:26:32;;;;;;;17.05;11.98;;;7.20;99.90;;;;;;5106172;28;20063;-81
2021/11/14 07:28:58;;;;;;;17.45;12.88;;;7.20;99.90;;;;;;5108699;28;20047;-80
2021/11/14 07:31:24;;;;;;;19.17;12.85;;;7.20;99.90;;;;;;5112038;28;20179;-82
2021/11/14 07:33:50;;;;;;;19.15;13.23;;;7.20;99.90;;;;;;5084303;28;20028;-82
2021/11/14 07:36:16;;;;;;;22.08;13.75;;;7.20;99.90;;;;;;5102730;28;20458;-82
2021/11/14 07:38:42;;;;;;;17.95;12.35;;;7.20;99.90;;;;;;5085981;28;20541;-82
2021/11/14 07:41:08;;;;;;;18.25;12.88;;;7.20;99.90;;;;;;5084934;28;20038;-82
2021/11/14 07:43:34;;;;;;;17.38;12.50;;;7.20;99.90;;;;;;5110700;28;20039;-83
2021/11/14 07:46:00;;;;;;;18.23;13.00;;;7.20;99.90;;;;;;5103021;28;20024;-82
2021/11/14 07:48:26;;;;;;;17.98;13.55;;;7.20;99.90;;;;;;5103106;28;20074;-83
2021/11/14 07:50:54;;;;;;;20.27;14.13;;;7.20;99.90;;;;;;5103154;28;20035;-81
2021/11/14 07:53:20;;;;;;;19.60;14.00;;;7.20;99.90;;;;;;5095579;28;20097;-83
2021/11/14 07:55:46;;;;;;;21.45;14.73;;;7.20;99.90;;;;;;5092711;28;20032;-83
2021/11/14 07:58:12;;;;;;;20.85;15.60;;;7.20;99.90;;;;;;5076305;28;20016;-83
2021/11/14 08:00:39;;;;;;;23.25;15.57;;;7.20;99.90;;;;;;5081972;28;20487;-86
2021/11/14 08:03:05;;;;;;;21.98;14.85;;;7.20;99.90;;;;;;5067251;28;20019;-83
2021/11/14 08:05:31;;;;;;;25.80;17.60;;;7.20;99.90;;;;;;5100066;28;20020;-83
2021/11/14 08:07:57;;;;;;;26.88;16.10;;;7.20;99.90;;;;;;5102266;28;20364;-83
2021/11/14 08:10:24;;;;;;;24.77;16.65;;;7.30;99.90;;;;;;5103290;28;20036;-84
2021/11/14 08:12:51;;;;;;;22.63;15.93;;;7.30;99.90;;;;;;5084064;28;20024;-84
2021/11/14 08:15:17;;;;;;;24.23;15.85;;;7.30;99.90;;;;;;5110805;28;20093;-83
2021/11/14 08:17:44;;;;;;;28.75;17.60;;;7.30;99.90;;;;;;5102656;28;20074;-83
2021/11/14 08:20:11;;;;;;;25.67;17.52;;;7.40;99.90;;;;;;5102943;28;20472;-84
2021/11/14 08:22:38;;;;;;;29.90;17.75;;;7.40;99.90;;;;;;5102172;28;20107;-84
2021/11/14 08:25:05;;;;;;;27.63;17.67;;;7.50;99.90;;;;;;5103069;28;20016;-84
2021/11/14 08:27:32;;;;;;;29.45;17.70;;;7.50;99.90;;;;;;5102902;28;20024;-83
2021/11/14 08:29:59;;;;;;;30.17;19.17;;;7.50;99.90;;;;;;5085227;28;20088;-81
2021/11/14 08:32:26;;;;;;;32.80;19.42;;;7.50;99.90;;;;;;5095211;28;20024;-80
2021/11/14 08:34:52;;;;;;;31.20;20.23;;;7.50;99.90;;;;;;5081384;28;20017;-82
2021/11/14 08:37:17;;;;;;;29.70;19.83;;;7.40;99.90;;;;;;5063904;28;20070;-82
2021/11/14 08:39:43;;;;;;;30.30;19.80;;;7.40;99.90;;;;;;5081617;28;20028;-81
2021/11/14 08:42:09;;;;;;;29.83;19.05;;;7.40;99.90;;;;;;5085613;28;20035;-82
2021/11/14 08:44:36;;;;;;;33.75;20.10;;;7.50;99.90;;;;;;5113040;28;20032;-83
2021/11/14 08:47:02;;;;;;;32.22;20.95;;;7.50;99.90;;;;;;5084154;28;20020;-82
2021/11/14 08:49:28;;;;;;;33.70;19.30;;;7.70;99.90;;;;;;5083954;28;20551;-81
2021/11/14 08:51:53;;;;;;;32.22;19.00;;;7.80;99.90;;;;;;5101220;28;20027;-81
2021/11/14 08:54:19;;;;;;;31.67;20.23;;;7.80;99.90;;;;;;5099504;28;20024;-82
2021/11/14 08:56:45;;;;;;;31.77;19.98;;;7.80;99.90;;;;;;5101306;28;20527;-84
2021/11/14 08:59:11;;;;;;;28.20;18.40;;;7.80;99.90;;;;;;5083259;28;20028;-83
2021/11/14 09:01:38;;;;;;;32.88;19.55;;;7.90;99.90;;;;;;5101209;28;20028;-82
2021/11/14 09:04:07;;;;;;;32.78;19.58;;;7.80;99.90;;;;;;5088886;28;20056;-81
2021/11/14 09:06:36;;;;;;;28.58;19.08;;;7.80;99.90;;;;;;5081320;28;20028;-82
2021/11/14 09:09:04;;;;;;;33.65;19.50;;;7.80;99.90;;;;;;5081104;28;20024;-82
2021/11/14 09:11:30;;;;;;;29.23;17.83;;;7.90;99.90;;;;;;5062472;28;20455;-82
2021/11/14 09:13:56;;;;;;;31.13;18.15;;;7.90;99.90;;;;;;5083033;28;20048;-82
2021/11/14 09:16:27;;;;;;;30.05;17.75;;;7.90;99.90;;;;;;5121475;28;20227;-83
2021/11/14 09:18:55;;;;;;;29.50;17.15;;;7.90;99.90;;;;;;5122199;28;20030;-84
2021/11/14 09:21:21;;;;;;;28.02;17.05;;;7.90;99.90;;;;;;5121606;28;20070;-82
2021/11/14 09:23:47;;;;;;;26.67;16.70;;;7.90;99.90;;;;;;5116037;28;20491;-82
2021/11/14 09:26:13;;;;;;;23.58;16.50;;;7.90;99.90;;;;;;5084589;28;20024;-82
2021/11/14 09:28:39;;;;;;;23.40;15.60;;;7.90;99.90;;;;;;5100377;28;20024;-81
2021/11/14 09:31:05;;;;;;;26.38;16.17;;;8.00;99.90;;;;;;5110003;28;20071;-81
2021/11/14 09:33:33;;;;;;;29.48;17.52;;;8.10;99.90;;;;;;5095613;28;20058;-81
2021/11/14 09:35:59;;;;;;;25.52;16.88;;;8.10;99.90;;;;;;5081439;28;20045;-82
2021/11/14 09:38:25;;;;;;;24.88;16.20;;;8.10;99.90;;;;;;5080165;28;20035;-82
2021/11/14 09:40:51;;;;;;;25.35;16.58;;;8.20;99.90;;;;;;5079780;28;20025;-81
2021/11/14 09:43:19;;;;;;;26.23;15.75;;;8.20;99.90;;;;;;5082141;28;20400;-82
2021/11/14 09:45:45;;;;;;;26.38;15.75;;;8.30;99.90;;;;;;5082610;28;20035;-82
2021/11/14 09:48:11;;;;;;;24.65;15.10;;;8.30;99.90;;;;;;5090633;28;20028;-80
2021/11/14 09:50:37;;;;;;;23.05;15.48;;;8.30;99.90;;;;;;5079916;28;20033;-82
2021/11/14 09:53:04;;;;;;;24.73;15.38;;;8.30;99.90;;;;;;5080660;28;20059;-83
2021/11/14 09:55:34;;;;;;;24.20;15.63;;;8.40;99.90;;;;;;5072037;28;20032;-81
2021/11/14 09:58:02;;;;;;;24.98;15.10;;;8.40;99.90;;;;;;5100776;28;20028;-81
2021/11/14 10:00:28;;;;;;;22.45;15.93;;;8.40;99.90;;;;;;5101138;28;20029;-82
2021/11/14 10:02:54;;;;;;;21.08;14.75;;;8.40;99.90;;;;;;5103575;28;20030;-81
2021/11/14 10:05:20;;;;;;;22.73;14.65;;;8.40;99.90;;;;;;5100735;28;20528;-82
2021/11/14 10:08:03;;;;;;;19.55;13.60;;;8.30;99.90;;;;;;5091110;28;20035;-80
2021/11/14 10:10:32;;;;;;;21.58;13.73;;;8.30;99.90;;;;;;5069667;28;20444;-82
2021/11/14 10:13:09;;;;;;;22.05;12.95;;;8.20;99.90;;;;;;5084848;28;20056;-80
2021/11/14 10:15:36;;;;;;;21.63;12.98;;;8.10;99.90;;;;;;5114288;28;20426;-82
2021/11/14 10:18:03;;;;;;;18.98;12.80;;;8.10;99.90;;;;;;5104380;28;20055;-81
2021/11/14 10:20:35;;;;;;;19.75;13.48;;;8.10;99.90;;;;;;5086473;28;20035;-82
2021/11/14 10:23:04;;;;;;;20.15;12.20;;;8.00;99.90;;;;;;5103713;28;20473;-82
2021/11/14 10:25:30;;;;;;;18.85;12.68;;;8.00;99.90;;;;;;5107104;28;20028;-82
2021/11/14 10:27:58;;;;;;;17.60;11.68;;;8.00;99.90;;;;;;5104834;28;20023;-81
2021/11/14 10:30:27;;;;;;;15.63;10.60;;;7.90;99.90;;;;;;5104970;28;20141;-82
2021/11/14 10:32:54;;;;;;;16.08;9.50;;;7.90;99.90;;;;;;5104190;28;20020;-82
2021/11/14 10:35:20;;;;;;;14.25;9.63;;;7.90;99.90;;;;;;5104097;28;20170;-81
2021/11/14 10:37:46;;;;;;;15.82;9.73;;;7.90;99.90;;;;;;5085800;28;20063;-82
2021/11/14 10:40:19;;;;;;;12.05;8.38;;;7.90;99.90;;;;;;5065467;28;20031;-81
2021/11/14 10:42:49;;;;;;;11.93;7.60;;;8.00;99.90;;;;;;5099179;28;20035;-82
2021/11/14 10:45:17;;;;;;;14.70;8.85;;;7.90;99.90;;;;;;5106522;28;20019;-83
2021/11/14 10:47:44;;;;;;;14.02;7.93;;;7.90;99.90;;;;;;5108954;28;20024;-83
2021/11/14 10:50:13;;;;;;;13.20;8.85;;;7.90;99.90;;;;;;5104681;28;20031;-82
2021/11/14 10:53:00;;;;;;;13.73;8.95;;;7.90;99.90;;;;;;5106199;28;20488;-83
2021/11/14 10:55:30;;;;;;;15.63;8.82;;;7.90;99.90;;;;;;5114856;28;20024;-81
2021/11/14 10:57:57;;;;;;;16.77;9.93;;;7.90;99.90;;;;;;5104461;28;20566;-81
2021/11/14 11:00:28;;;;;;;16.27;9.88;;;8.00;99.90;;;;;;5076422;28;20075;-82
2021/11/14 11:02:54;;;;;;;17.88;10.05;;;7.90;99.90;;;;;;5083773;28;20021;-81
2021/11/14 11:05:25;;;;;;;15.40;9.90;;;7.90;99.90;;;;;;5083362;28;20134;-83
2021/11/14 11:07:58;;;;;;;14.80;9.68;;;7.90;99.90;;;;;;5091500;28;20027;-82
2021/11/14 11:10:31;;;;;;;14.70;10.00;;;7.90;99.90;;;;;;5085281;28;20039;-82
2021/11/14 11:12:57;;;;;;;17.60;10.32;;;7.90;99.90;;;;;;5111951;28;20034;-82
2021/11/14 11:15:23;;;;;;;12.90;9.20;;;7.90;99.90;;;;;;5117892;28;20062;-82
2021/11/14 11:17:51;;;;;;;14.93;9.75;;;7.90;99.90;;;;;;5116263;28;20013;-81
2021/11/14 11:20:24;;;;;;;14.25;9.98;;;7.90;99.90;;;;;;5104100;28;20039;-82
2021/11/14 11:22:54;;;;;;;14.07;9.98;;;7.90;99.90;;;;;;5103312;28;20117;-83
2021/11/14 11:25:38;;;;;;;17.55;10.52;;;8.00;99.90;;;;;;5103341;28;20024;-82
2021/11/14 11:28:15;;;;;;;19.50;11.38;;;8.00;99.90;;;;;;5099767;28;20035;-82
2021/11/14 11:30:45;;;;;;;16.88;10.68;;;8.00;99.90;;;;;;5065500;28;20055;-82
2021/11/14 11:33:11;;;;;;;14.63;10.02;;;8.00;99.90;;;;;;5082818;28;20269;-83
2021/11/14 11:35:37;;;;;;;14.57;10.32;;;8.10;99.90;;;;;;5082647;28;20035;-82
2021/11/14 11:38:14;;;;;;;15.05;10.25;;;8.10;99.90;;;;;;5084462;28;20116;-80
2021/11/14 11:40:41;;;;;;;15.88;11.57;;;7.90;99.90;;;;;;5099303;28;20036;-80
2021/11/14 11:43:07;;;;;;;16.25;11.30;;;7.90;99.90;;;;;;5132448;22;20271;-75
2021/11/14 11:45:42;;;;;;;17.73;10.55;;;7.80;99.90;;;;;;5124021;27;20016;-78
2021/11/14 11:48:23;;;;;;;16.90;11.18;;;7.80;99.90;;;;;;5106900;28;20043;-77
2021/11/14 11:50:51;;;;;;;16.63;11.20;;;7.80;99.90;;;;;;5102500;28;20068;-79
2021/11/14 11:53:29;;;;;;;20.70;11.82;;;7.80;99.90;;;;;;5080367;28;20115;-77
2021/11/14 11:56:33;;;;;;;19.35;11.40;;;7.80;99.90;;;;;;5081464;28;20017;-76
2021/11/14 11:58:59;;;;;;;17.63;12.02;;;7.70;99.90;;;;;;5076419;28;20476;-77
2021/11/14 12:01:31;;;;;;;17.60;11.93;;;7.70;99.90;;;;;;5099479;28;20039;-78
2021/11/14 12:04:17;;;;;;;;;;;7.70;99.90;;;;;;5104792;28;20020;-77
2021/11/14 12:06:58;;;;;;;17.88;11.02;;;7.80;99.90;;;;;;5100321;28;20229;-76
2021/11/14 12:09:26;;;;;;;19.15;10.95;;;7.80;99.90;;;;;;5096346;28;20048;-77
2021/11/14 12:11:53;;;;;;;16.77;11.60;;;7.80;99.90;;;;;;5078138;28;20099;-76
2021/11/14 12:14:26;;;;;;;20.83;12.07;;;7.80;99.90;;;;;;5107722;28;20048;-76
2021/11/14 12:17:01;;;;;;;20.27;11.70;;;7.80;99.90;;;;;;5100418;28;20058;-77
2021/11/14 12:19:31;;;;;;;20.08;12.07;;;7.80;99.90;;;;;;5099252;28;20043;-75
2021/11/14 12:22:00;;;;;;;18.48;12.23;;;7.80;99.90;;;;;;5100057;28;20032;-77
2021/11/14 12:24:26;;;;;;;18.83;12.25;;;7.80;99.90;;;;;;5102499;28;20020;-77
2021/11/14 12:26:52;;;;;;;23.27;13.05;;;7.80;99.90;;;;;;5086572;28;20020;-77
2021/11/14 12:29:33;;;;;;;21.23;13.63;;;7.70;99.90;;;;;;5102350;28;20016;-76
2021/11/14 12:32:17;;;;;;;19.85;12.13;;;7.80;99.90;;;;;;5096035;28;20039;-76
2021/11/14 12:34:47;;;;;;;20.35;13.02;;;7.80;99.90;;;;;;5100669;28;20027;-76
2021/11/14 12:37:14;;;;;;;24.05;14.32;;;7.80;99.90;;;;;;5100979;28;20016;-77
2021/11/14 12:39:43;;;;;;;25.42;14.98;;;7.70;99.90;;;;;;5089492;28;20098;-77
2021/11/14 12:42:19;;;;;;;23.45;15.30;;;7.70;99.90;;;;;;5086005;28;20038;-77
2021/11/14 12:44:45;;;;;;;24.25;14.48;;;7.80;99.90;;;;;;5111119;28;20122;-76
2021/11/14 12:47:22;;;;;;;21.30;12.75;;;7.80;99.90;;;;;;5116536;28;20055;-78
2021/11/14 12:50:06;;;;;;;21.25;13.68;;;7.80;99.90;;;;;;5103355;28;20046;-77